createdAt,value
2017-07-11T00:06:35.086Z,0
2017-07-11T00:16:49.797Z,0
2017-07-11T00:27:05.415Z,0
2017-07-11T00:37:19.228Z,0
2017-07-11T00:47:33.881Z,0
2017-07-11T00:57:47.886Z,0
2017-07-11T01:08:02.816Z,0
2017-07-11T01:18:17.598Z,0
2017-07-11T01:28:31.387Z,0
2017-07-11T01:38:46.835Z,0
2017-07-11T01:49:01.282Z,0
2017-07-11T01:59:15.970Z,0
2017-07-11T02:09:30.551Z,0
2017-07-11T02:19:45.828Z,0
2017-07-11T02:30:00.852Z,0
2017-07-11T02:40:15.680Z,0
2017-07-11T02:50:29.458Z,8
2017-07-11T03:00:43.964Z,36
2017-07-11T03:10:58.199Z,112
2017-07-11T03:21:12.635Z,260
2017-07-11T03:31:27.681Z,536
2017-07-11T03:41:42.531Z,932
2017-07-11T03:51:56.943Z,1392
2017-07-11T04:02:11.971Z,1988
2017-07-11T04:12:27.582Z,2708
2017-07-11T04:22:42.274Z,3188
2017-07-11T04:32:56.913Z,3808
2017-07-11T04:43:10.821Z,4236
2017-07-11T04:53:25.424Z,4956
2017-07-11T05:03:40.211Z,6036
2017-07-11T05:13:55.441Z,5360
2017-07-11T05:24:09.998Z,7828
2017-07-11T05:34:23.958Z,9768
2017-07-11T05:44:38.780Z,10676
2017-07-11T05:54:53.507Z,11564
2017-07-11T06:05:07.567Z,15368
2017-07-11T06:15:21.524Z,10496
2017-07-11T06:25:37.273Z,9544
2017-07-11T06:35:52.205Z,13456
2017-07-11T06:46:07.093Z,12336
2017-07-11T06:56:22.622Z,18432
2017-07-11T07:06:37.096Z,24096
2017-07-11T07:16:50.978Z,21984
2017-07-11T07:27:05.396Z,19008
2017-07-11T07:37:20.741Z,15064
2017-07-11T07:47:35.006Z,35680
2017-07-11T07:57:49.978Z,18464
2017-07-11T08:08:05.765Z,19968
2017-07-11T08:18:20.224Z,16172
2017-07-11T08:28:34.115Z,13708
2017-07-11T08:38:48.766Z,15780
2017-07-11T08:49:03.335Z,25696
2017-07-11T08:59:17.714Z,22688
2017-07-11T09:09:32.898Z,10140
2017-07-11T09:19:46.991Z,25664
2017-07-11T09:30:02.342Z,25344
2017-07-11T09:40:16.735Z,21344
2017-07-11T09:50:31.540Z,29056
2017-07-11T10:00:45.970Z,22432
2017-07-11T10:11:01.287Z,24160
2017-07-11T10:21:15.183Z,25792
2017-07-11T10:31:29.195Z,87104
2017-07-11T10:41:45.079Z,101344
2017-07-11T10:51:59.650Z,55040
2017-07-11T11:02:13.820Z,100704
2017-07-11T11:12:29.447Z,45440
2017-07-11T11:22:44.904Z,73216
2017-07-11T11:33:00.024Z,107488
2017-07-11T11:43:14.751Z,112960
2017-07-11T11:53:29.735Z,87008
2017-07-11T12:03:45.359Z,90176
2017-07-11T12:14:00.456Z,35744
2017-07-11T12:24:15.881Z,69280
2017-07-11T12:34:30.530Z,97152
2017-07-11T12:44:44.956Z,73632
2017-07-11T12:55:00.449Z,56320
2017-07-11T13:05:15.067Z,88000
2017-07-11T13:15:30.588Z,92384
2017-07-11T13:25:46.944Z,48064
2017-07-11T13:36:02.345Z,54336
2017-07-11T13:46:16.635Z,41760
2017-07-11T13:56:31.412Z,29248
2017-07-11T14:06:45.316Z,4288
2017-07-11T14:16:59.674Z,1732
2017-07-11T14:27:14.012Z,4916
2017-07-11T14:37:27.861Z,21888
2017-07-11T14:47:41.769Z,21280
2017-07-11T14:57:56.388Z,31168
2017-07-11T15:08:10.606Z,32000
2017-07-11T15:18:25.799Z,29440
2017-07-11T15:28:40.827Z,47136
2017-07-11T15:38:56.388Z,39072
2017-07-11T15:49:11.389Z,37280
2017-07-11T15:59:25.954Z,28832
2017-07-11T16:09:41.375Z,39200
2017-07-11T16:19:56.820Z,25440
2017-07-11T16:30:12.057Z,22496
2017-07-11T16:40:26.804Z,25728
2017-07-11T16:50:42.012Z,20096
2017-07-11T17:00:55.893Z,16680
2017-07-11T17:11:11.570Z,13480
2017-07-11T17:21:26.869Z,10664
2017-07-11T17:31:42.531Z,9352
2017-07-11T17:41:57.319Z,10232
2017-07-11T17:52:12.365Z,7748
2017-07-11T18:02:27.082Z,7680
2017-07-11T18:12:41.280Z,6728
2017-07-11T18:22:56.341Z,5520
2017-07-11T18:33:11.191Z,4832
2017-07-11T18:43:25.478Z,3364
2017-07-11T18:53:41.272Z,2600
2017-07-11T19:03:55.210Z,1948
2017-07-11T19:14:09.587Z,1108
2017-07-11T19:24:24.054Z,472
2017-07-11T19:34:38.141Z,400
2017-07-11T19:44:52.960Z,244
2017-07-11T19:55:07.651Z,120
2017-07-11T20:05:23.114Z,44
2017-07-11T20:15:38.475Z,12
2017-07-11T20:25:52.308Z,4
2017-07-11T20:36:07.393Z,0
2017-07-11T20:46:22.944Z,0
2017-07-11T20:56:38.684Z,0
2017-07-11T21:06:54.234Z,0
2017-07-11T21:17:08.344Z,0
2017-07-11T21:27:22.232Z,0
2017-07-11T21:37:36.679Z,0
2017-07-11T21:47:52.409Z,0
2017-07-11T21:58:07.966Z,0
2017-07-11T22:08:22.664Z,0
2017-07-11T22:18:36.545Z,0
2017-07-11T22:28:50.385Z,0
2017-07-11T22:39:04.152Z,0
2017-07-11T22:49:19.621Z,0
2017-07-11T22:59:34.517Z,0
2017-07-11T23:09:49.727Z,0
2017-07-11T23:20:05.377Z,0
2017-07-11T23:30:20.988Z,0
2017-07-11T23:40:35.190Z,0
2017-07-11T23:50:49.257Z,0
